createdAt,value
2023-01-07T00:00:49.821Z,97689.28
2023-01-07T00:02:52.903Z,97696.19
2023-01-07T00:04:55.586Z,97694.63
2023-01-07T00:06:59.397Z,97691.28
2023-01-07T00:09:02.932Z,97688.78
2023-01-07T00:11:07.468Z,97688.88
2023-01-07T00:13:10.041Z,97692.31
2023-01-07T00:15:12.962Z,97693.06
2023-01-07T00:17:16.821Z,97687.81
2023-01-07T00:19:21.608Z,97681.88
2023-01-07T00:21:25.493Z,97681.09
2023-01-07T00:23:29.579Z,97683.66
2023-01-07T00:25:32.167Z,97681.09
2023-01-07T00:27:34.719Z,97682.75
2023-01-07T00:29:37.270Z,97674.16
2023-01-07T00:31:41.317Z,97671.47
2023-01-07T00:33:51.822Z,97675.03
2023-01-07T00:36:00.166Z,97674.97
2023-01-07T00:38:02.740Z,97673.09
2023-01-07T00:40:05.891Z,97664.44
2023-01-07T00:42:26.035Z,97670.53
2023-01-07T00:44:28.745Z,97665.34
2023-01-07T00:46:31.403Z,97668.09
2023-01-07T00:48:34.087Z,97657.63
2023-01-07T00:50:39.137Z,97656.81
2023-01-07T00:52:41.704Z,97657.69
2023-01-07T00:54:44.321Z,97658.59
2023-01-07T00:56:46.855Z,97653.44
2023-01-07T00:58:49.383Z,97658.59
2023-01-07T01:00:55.833Z,97654.25
2023-01-07T01:02:59.362Z,97657.69
2023-01-07T01:05:01.899Z,97653.25
2023-01-07T01:07:05.798Z,97653.22
2023-01-07T01:09:08.851Z,97650.63
2023-01-07T01:11:13.110Z,97659.06
2023-01-07T01:13:18.419Z,97647.94
2023-01-07T01:15:21.466Z,97651.41
2023-01-07T01:17:24.378Z,97646.28
2023-01-07T01:19:26.933Z,97649.00
2023-01-07T01:21:29.485Z,97648.09
2023-01-07T01:23:33.373Z,97649.00
2023-01-07T01:25:37.041Z,97647.25
2023-01-07T01:27:39.804Z,97645.41
2023-01-07T01:29:42.423Z,97650.78
2023-01-07T01:31:45.130Z,97637.75
2023-01-07T01:33:47.729Z,97641.28
2023-01-07T01:35:50.237Z,97636.13
2023-01-07T01:37:52.817Z,97641.44
2023-01-07T01:39:56.709Z,97636.22
2023-01-07T01:41:59.388Z,97632.75
2023-01-07T01:44:02.390Z,97627.47
2023-01-07T01:46:09.946Z,97627.44
2023-01-07T01:48:12.572Z,97627.44
2023-01-07T01:50:20.132Z,97629.94
2023-01-07T01:52:28.317Z,97615.25
2023-01-07T01:54:31.423Z,97620.41
2023-01-07T01:56:39.400Z,97621.22
2023-01-07T01:58:44.965Z,97615.03
2023-01-07T02:00:47.631Z,97621.13
2023-01-07T02:02:53.347Z,97619.38
2023-01-07T02:04:57.372Z,97619.38
2023-01-07T02:07:05.078Z,97625.59
2023-01-07T02:09:07.619Z,97616.84
2023-01-07T02:11:20.769Z,97613.41
2023-01-07T02:13:37.216Z,97617.56
2023-01-07T02:15:47.939Z,97605.53
2023-01-07T02:18:09.463Z,97608.09
2023-01-07T02:20:42.842Z,97613.31
2023-01-07T02:23:05.242Z,97606.34
2023-01-07T02:25:27.857Z,97599.41
2023-01-07T02:27:53.157Z,97600.34
2023-01-07T02:30:26.248Z,97596.81
2023-01-07T02:32:55.841Z,97600.41
2023-01-07T02:35:06.545Z,97592.59
2023-01-07T02:37:15.697Z,97600.41
2023-01-07T02:39:36.863Z,97590.94
2023-01-07T02:41:48.954Z,97586.63
2023-01-07T02:43:57.775Z,97579.72
2023-01-07T02:46:06.484Z,97581.50
2023-01-07T02:48:14.344Z,97571.94
2023-01-07T02:53:33.278Z,97563.28
2023-01-07T02:55:46.159Z,97564.09
2023-01-07T02:58:23.951Z,97562.56
2023-01-07T03:00:43.135Z,97555.59
2023-01-07T03:03:02.793Z,97553.88
2023-01-07T03:05:19.981Z,97552.97
2023-01-07T03:07:34.812Z,97547.84
2023-01-07T03:09:45.185Z,97549.63
2023-01-07T03:11:55.607Z,97548.78
2023-01-07T03:14:03.253Z,97548.78
2023-01-07T03:16:10.845Z,97538.38
2023-01-07T03:18:18.011Z,97540.00
2023-01-07T03:20:24.565Z,97537.34
2023-01-07T03:22:31.030Z,97535.53
2023-01-07T03:24:34.460Z,97541.56
2023-01-07T03:26:41.961Z,97535.50
2023-01-07T03:28:46.485Z,97527.59
2023-01-07T03:30:50.225Z,97530.28
2023-01-07T03:32:58.815Z,97523.03
2023-01-07T03:35:01.360Z,97524.94
2023-01-07T03:37:09.042Z,97517.97
2023-01-07T03:39:13.321Z,97522.22
2023-01-07T03:41:36.373Z,97516.28
2023-01-07T03:43:38.021Z,97511.88
2023-01-07T03:45:40.517Z,97503.50
2023-01-07T03:47:46.548Z,97513.03
2023-01-07T03:49:49.331Z,97509.63
2023-01-07T03:51:54.356Z,97509.50
2023-01-07T03:53:58.332Z,97510.38
2023-01-07T03:56:00.954Z,97499.97
2023-01-07T03:58:03.649Z,97506.00
2023-01-07T04:00:08.955Z,97501.59
2023-01-07T04:02:11.640Z,97494.69
2023-01-07T04:04:14.490Z,97493.75
2023-01-07T04:06:17.068Z,97492.88
2023-01-07T04:08:19.684Z,97490.25
2023-01-07T04:10:23.630Z,97479.03
2023-01-07T04:12:26.207Z,97474.66
2023-01-07T04:14:28.821Z,97476.44
2023-01-07T04:16:31.467Z,97476.53
2023-01-07T04:18:34.101Z,97476.53
2023-01-07T04:20:36.821Z,97475.78
2023-01-07T04:22:41.593Z,97471.44
2023-01-07T04:24:44.207Z,97467.66
2023-01-07T04:26:48.152Z,97465.19
2023-01-07T04:28:50.873Z,97461.88
2023-01-07T04:30:53.544Z,97465.38
2023-01-07T04:32:56.132Z,97461.06
2023-01-07T04:34:58.769Z,97464.53
2023-01-07T04:37:01.345Z,97460.16
2023-01-07T04:39:04.155Z,97458.09
2023-01-07T04:41:06.960Z,97459.19
2023-01-07T04:43:11.362Z,97459.25
2023-01-07T04:45:13.934Z,97463.63
2023-01-07T04:47:16.534Z,97453.22
2023-01-07T04:49:19.104Z,97452.19
2023-01-07T04:51:21.706Z,97451.44
2023-01-07T04:53:24.434Z,97447.16
2023-01-07T04:55:27.006Z,97449.75
2023-01-07T04:57:30.239Z,97455.78
2023-01-07T04:59:34.162Z,97449.53
2023-01-07T05:01:36.863Z,97443.56
2023-01-07T05:03:39.532Z,97442.69
2023-01-07T05:05:42.089Z,97436.72
2023-01-07T05:07:44.672Z,97441.13
2023-01-07T05:09:47.257Z,97432.34
2023-01-07T05:11:49.854Z,97431.47
2023-01-07T05:13:52.517Z,97431.47
2023-01-07T05:15:56.483Z,97439.16
2023-01-07T05:17:59.097Z,97427.13
2023-01-07T05:20:01.777Z,97428.09
2023-01-07T05:22:04.740Z,97419.47
2023-01-07T05:24:07.654Z,97429.94
2023-01-07T05:26:10.252Z,97418.63
2023-01-07T05:28:12.989Z,97414.44
2023-01-07T05:30:15.934Z,97416.13
2023-01-07T05:32:19.965Z,97408.41
2023-01-07T05:34:22.534Z,97407.59
2023-01-07T05:36:25.127Z,97409.13
2023-01-07T05:38:27.682Z,97410.16
2023-01-07T05:40:30.417Z,97412.81
2023-01-07T05:42:32.959Z,97409.34
2023-01-07T05:44:35.568Z,97405.88
2023-01-07T05:46:38.190Z,97406.78
2023-01-07T05:48:42.254Z,97399.03
2023-01-07T05:50:45.035Z,97399.03
2023-01-07T05:52:47.665Z,97401.63
2023-01-07T05:54:50.241Z,97396.34
2023-01-07T05:56:52.831Z,97398.13
2023-01-07T05:58:55.457Z,97392.03
2023-01-07T06:00:58.149Z,97397.28
2023-01-07T06:03:00.749Z,97395.63
2023-01-07T06:05:04.822Z,97399.91
2023-01-07T06:07:07.443Z,97391.94
2023-01-07T06:09:10.029Z,97395.34
2023-01-07T06:11:12.638Z,97394.50
2023-01-07T06:13:15.264Z,97387.66
2023-01-07T06:15:18.138Z,97393.03
2023-01-07T06:17:20.716Z,97394.88
2023-01-07T06:19:23.500Z,97386.19
2023-01-07T06:21:27.438Z,97392.38
2023-01-07T06:23:31.330Z,97388.94
2023-01-07T06:25:34.112Z,97384.59
2023-01-07T06:27:36.674Z,97386.44
2023-01-07T06:29:39.279Z,97376.09
2023-01-07T06:31:41.833Z,97377.03
2023-01-07T06:33:45.114Z,97379.69
2023-01-07T06:35:47.823Z,97378.81
2023-01-07T06:37:51.797Z,97378.00
2023-01-07T06:39:54.395Z,97373.66
2023-01-07T06:41:56.971Z,97371.88
2023-01-07T06:43:59.624Z,97371.97
2023-01-07T06:46:02.360Z,97369.44
2023-01-07T06:48:05.271Z,97376.41
2023-01-07T06:50:08.961Z,97372.03
2023-01-07T06:52:11.523Z,97371.97
2023-01-07T06:54:15.554Z,97361.63
2023-01-07T06:56:18.119Z,97365.91
2023-01-07T06:58:20.689Z,97358.09
2023-01-07T07:00:23.375Z,97358.16
2023-01-07T07:02:28.064Z,97359.06
2023-01-07T07:04:30.780Z,97350.41
2023-01-07T07:06:33.863Z,97357.34
2023-01-07T07:08:36.481Z,97350.50
2023-01-07T07:10:41.081Z,97351.38
2023-01-07T07:12:43.741Z,97348.78
2023-01-07T07:14:46.620Z,97347.03
2023-01-07T07:16:49.586Z,97343.59
2023-01-07T07:18:52.502Z,97340.97
2023-01-07T07:20:55.295Z,97342.78
2023-01-07T07:22:57.907Z,97343.53
2023-01-07T07:25:00.511Z,97336.63
2023-01-07T07:27:04.772Z,97337.50
2023-01-07T07:29:07.408Z,97337.53
2023-01-07T07:31:10.758Z,97339.34
2023-01-07T07:33:14.928Z,97339.34
2023-01-07T07:35:17.841Z,97334.16
2023-01-07T07:37:20.415Z,97328.13
2023-01-07T07:39:23.145Z,97323.72
2023-01-07T07:41:25.719Z,97332.28
2023-01-07T07:43:29.628Z,97320.16
2023-01-07T07:45:32.247Z,97320.97
2023-01-07T07:47:34.834Z,97327.00
2023-01-07T07:49:40.350Z,97322.66
2023-01-07T07:51:43.052Z,97325.97
2023-01-07T07:53:45.622Z,97324.34
2023-01-07T07:55:48.431Z,97326.94
2023-01-07T07:57:51.046Z,97320.03
2023-01-07T07:59:55.320Z,97316.59
2023-01-07T08:01:58.169Z,97314.88
2023-01-07T08:04:00.748Z,97318.38
2023-01-07T08:06:05.065Z,97318.31
2023-01-07T08:08:09.313Z,97305.16
2023-01-07T08:10:11.964Z,97300.78
2023-01-07T08:12:14.596Z,97308.63
2023-01-07T08:14:17.162Z,97306.88
2023-01-07T08:16:21.184Z,97306.13
2023-01-07T08:18:26.824Z,97307.00
2023-01-07T08:20:29.976Z,97306.06
2023-01-07T08:22:33.283Z,97305.16
2023-01-07T08:24:35.981Z,97298.91
2023-01-07T08:26:38.592Z,97298.91
2023-01-07T08:28:41.192Z,97303.91
2023-01-07T08:30:44.009Z,97296.03
2023-01-07T08:32:48.029Z,97303.84
2023-01-07T08:34:50.965Z,97298.47
2023-01-07T08:36:53.528Z,97293.84
2023-01-07T08:38:56.453Z,97294.84
2023-01-07T08:40:59.698Z,97302.44
2023-01-07T08:43:03.132Z,97295.63
2023-01-07T08:45:07.335Z,97299.97
2023-01-07T08:47:09.871Z,97296.28
2023-01-07T08:49:13.946Z,97300.63
2023-01-07T08:51:16.709Z,97287.59
2023-01-07T08:53:19.858Z,97289.16
2023-01-07T08:55:22.835Z,97289.16
2023-01-07T08:57:25.423Z,97284.06
2023-01-07T08:59:28.013Z,97282.22
2023-01-07T09:01:30.695Z,97274.47
2023-01-07T09:03:33.543Z,97282.28
2023-01-07T09:05:37.487Z,97276.09
2023-01-07T09:07:40.068Z,97278.44
2023-01-07T09:09:43.299Z,97277.66
2023-01-07T09:11:45.952Z,97276.75
2023-01-07T09:13:48.656Z,97278.72
2023-01-07T09:15:52.639Z,97284.31
2023-01-07T09:17:55.224Z,97280.28
2023-01-07T09:19:57.808Z,97286.34
2023-01-07T09:22:01.984Z,97289.31
2023-01-07T09:24:04.722Z,97288.25
2023-01-07T09:26:07.469Z,97281.31
2023-01-07T09:28:10.057Z,97295.47
2023-01-07T09:30:13.520Z,97290.09
2023-01-07T09:32:16.117Z,97288.03
2023-01-07T09:34:18.731Z,97286.97
2023-01-07T09:36:21.330Z,97290.94
2023-01-07T09:38:25.259Z,97281.22
2023-01-07T09:40:31.577Z,97287.16
2023-01-07T09:42:42.706Z,97293.19
2023-01-07T09:44:58.069Z,97289.72
2023-01-07T09:47:02.282Z,97293.47
2023-01-07T09:49:05.554Z,97294.91
2023-01-07T09:51:16.343Z,97296.09
2023-01-07T09:53:23.830Z,97289.78
2023-01-07T09:55:32.854Z,97291.53
2023-01-07T09:57:35.724Z,97294.72
2023-01-07T09:59:38.318Z,97292.50
2023-01-07T10:01:48.597Z,97291.75
2023-01-07T10:03:58.671Z,97293.22
2023-01-07T10:06:09.138Z,97288.34
2023-01-07T10:08:28.940Z,97282.25
2023-01-07T10:10:43.189Z,97284.41
2023-01-07T10:12:53.408Z,97281.22
2023-01-07T10:15:07.563Z,97269.97
2023-01-07T10:17:22.097Z,97262.41
2023-01-07T10:19:34.183Z,97257.31
2023-01-07T10:21:40.867Z,97248.38
2023-01-07T10:23:46.761Z,97245.53
2023-01-07T10:25:53.556Z,97240.47
2023-01-07T10:28:00.447Z,97233.13
2023-01-07T10:30:06.159Z,97239.75
2023-01-07T10:32:16.477Z,97230.97
2023-01-07T10:34:23.623Z,97227.22
2023-01-07T10:36:28.123Z,97224.13
2023-01-07T10:38:35.587Z,97216.94
2023-01-07T10:40:44.554Z,97213.84
2023-01-07T10:42:55.826Z,97214.97
2023-01-07T10:45:46.002Z,97211.53
2023-01-07T10:48:08.224Z,97206.38
2023-01-07T10:50:27.378Z,97202.53
2023-01-07T10:52:42.036Z,97199.31
2023-01-07T10:55:03.895Z,97191.31
2023-01-07T10:57:12.227Z,97181.81
2023-01-07T10:59:20.579Z,97186.81
2023-01-07T11:01:26.955Z,97182.34
2023-01-07T11:03:30.505Z,97175.50
2023-01-07T11:05:38.230Z,97163.63
2023-01-07T11:07:45.336Z,97172.03
2023-01-07T11:09:49.154Z,97168.09
2023-01-07T11:11:53.101Z,97170.56
2023-01-07T11:14:01.187Z,97171.97
2023-01-07T11:16:11.059Z,97169.63
2023-01-07T11:18:20.125Z,97166.22
2023-01-07T11:20:45.887Z,97154.81
2023-01-07T11:22:48.501Z,97154.25
2023-01-07T11:24:51.058Z,97156.66
2023-01-07T11:26:59.565Z,97155.69
2023-01-07T11:29:14.859Z,97155.41
2023-01-07T11:31:19.442Z,97145.06
2023-01-07T11:34:01.815Z,97146.00
2023-01-07T11:35:53.141Z,97138.22
2023-01-07T11:37:56.318Z,97134.78
2023-01-07T11:40:00.162Z,97134.72
2023-01-07T11:42:25.701Z,97119.25
2023-01-07T11:44:28.418Z,97116.78
2023-01-07T11:46:33.123Z,97113.03
2023-01-07T11:48:37.432Z,97106.34
2023-01-07T11:50:41.925Z,97114.47
2023-01-07T11:52:56.319Z,97099.22
2023-01-07T11:54:58.946Z,97095.19
2023-01-07T11:57:16.995Z,97099.00
2023-01-07T11:59:29.431Z,97090.44
2023-01-07T12:01:43.047Z,97083.91
2023-01-07T12:04:01.974Z,97089.75
2023-01-07T12:06:09.972Z,97081.94
2023-01-07T12:08:21.914Z,97078.19
2023-01-07T12:10:34.029Z,97067.06
2023-01-07T12:12:39.442Z,97064.19
2023-01-07T12:14:48.789Z,97064.25
2023-01-07T12:16:53.848Z,97057.28
2023-01-07T12:19:13.086Z,97056.03
2023-01-07T12:21:36.297Z,97044.47
2023-01-07T12:23:53.227Z,97038.38
2023-01-07T12:26:06.360Z,97033.91
2023-01-07T12:28:13.442Z,97029.44
2023-01-07T12:30:35.362Z,97019.78
2023-01-07T12:32:48.590Z,97010.66
2023-01-07T12:34:56.790Z,97012.81
2023-01-07T12:37:05.418Z,97006.88
2023-01-07T12:39:16.944Z,97006.06
2023-01-07T12:41:23.408Z,96993.03
2023-01-07T12:43:33.176Z,96998.34
2023-01-07T12:45:42.685Z,96995.13
2023-01-07T12:47:52.416Z,96988.16
2023-01-07T12:49:59.912Z,96982.56
2023-01-07T12:52:09.256Z,96990.09
2023-01-07T12:54:19.144Z,96976.47
2023-01-07T12:56:26.802Z,96974.25
2023-01-07T12:58:40.892Z,96965.34
2023-01-07T13:00:50.720Z,96959.31
2023-01-07T13:03:04.656Z,96961.53
2023-01-07T13:05:15.510Z,96961.91
2023-01-07T13:07:25.478Z,96947.53
2023-01-07T13:09:34.606Z,96953.47
2023-01-07T13:12:02.660Z,96950.88
2023-01-07T13:14:06.779Z,96953.31
2023-01-07T13:16:10.643Z,96941.69
2023-01-07T13:18:18.045Z,96939.56
2023-01-07T13:20:36.158Z,96939.84
2023-01-07T13:22:43.810Z,96942.19
2023-01-07T13:24:57.704Z,96942.66
2023-01-07T13:27:09.480Z,96939.31
2023-01-07T13:29:27.103Z,96936.97
2023-01-07T13:31:54.155Z,96928.50
2023-01-07T13:34:05.525Z,96932.88
2023-01-07T13:36:21.438Z,96923.91
2023-01-07T13:38:36.412Z,96927.66
2023-01-07T13:40:55.014Z,96918.97
2023-01-07T13:43:08.487Z,96919.69
2023-01-07T13:45:15.212Z,96919.75
2023-01-07T13:47:22.033Z,96917.63
2023-01-07T13:49:29.981Z,96913.97
2023-01-07T13:51:35.098Z,96916.88
2023-01-07T13:53:48.138Z,96911.50
2023-01-07T13:55:50.768Z,96912.28
2023-01-07T13:57:53.407Z,96914.69
2023-01-07T13:59:57.434Z,96903.56
2023-01-07T14:02:19.316Z,96899.41
2023-01-07T14:04:36.941Z,96896.97
2023-01-07T14:06:42.392Z,96904.19
2023-01-07T14:08:45.467Z,96905.88
2023-01-07T14:10:54.029Z,96894.13
2023-01-07T14:13:21.221Z,96896.31
2023-01-07T14:15:49.200Z,96900.75
2023-01-07T14:18:06.766Z,96893.13
2023-01-07T14:20:19.807Z,96902.44
2023-01-07T14:22:32.325Z,96900.19
2023-01-07T14:24:55.385Z,96904.31
2023-01-07T14:27:09.130Z,96911.06
2023-01-07T14:29:34.653Z,96908.88
2023-01-07T14:31:37.989Z,96907.75
2023-01-07T14:33:48.135Z,96908.25
2023-01-07T14:35:58.060Z,96904.16
2023-01-07T14:38:00.676Z,96908.78
2023-01-07T14:40:42.662Z,96907.38
2023-01-07T14:42:47.051Z,96906.25
2023-01-07T14:44:50.805Z,96909.78
2023-01-07T14:46:54.590Z,96909.63
2023-01-07T14:49:20.194Z,96915.03
2023-01-07T14:51:45.482Z,96913.75
2023-01-07T14:54:16.807Z,96925.31
2023-01-07T14:56:33.519Z,96914.59
2023-01-07T14:58:47.495Z,96908.97
2023-01-07T15:01:13.267Z,96912.13
2023-01-07T15:03:38.440Z,96911.22
2023-01-07T15:06:06.750Z,96910.78
2023-01-07T15:08:31.932Z,96909.59
2023-01-07T15:10:52.541Z,96920.59
2023-01-07T15:13:16.312Z,96915.00
2023-01-07T15:15:41.824Z,96907.47
2023-01-07T15:17:45.601Z,96908.50
2023-01-07T15:19:48.444Z,96911.81
2023-01-07T15:22:02.834Z,96909.50
2023-01-07T15:24:14.299Z,96912.22
2023-01-07T15:26:23.065Z,96908.41
2023-01-07T15:28:38.606Z,96905.06
2023-01-07T15:30:54.822Z,96903.75
2023-01-07T15:33:05.878Z,96902.06
2023-01-07T15:35:10.400Z,96903.31
2023-01-07T15:37:15.259Z,96910.78
2023-01-07T15:39:21.654Z,96904.69
2023-01-07T15:41:31.459Z,96912.03
2023-01-07T15:43:45.442Z,96912.94
2023-01-07T15:45:50.144Z,96908.19
2023-01-07T15:47:52.837Z,96907.28
2023-01-07T15:49:55.370Z,96906.09
2023-01-07T15:51:59.937Z,96905.06
2023-01-07T15:54:02.879Z,96909.44
2023-01-07T15:56:09.782Z,96905.84
2023-01-07T15:58:16.779Z,96907.69
2023-01-07T16:00:20.241Z,96908.91
2023-01-07T16:02:29.161Z,96903.88
2023-01-07T16:04:34.175Z,96901.63
2023-01-07T16:06:45.421Z,96900.88
2023-01-07T16:08:48.071Z,96904.88
2023-01-07T16:11:02.940Z,96901.97
2023-01-07T16:13:18.153Z,96906.09
2023-01-07T16:15:23.137Z,96903.84
2023-01-07T16:17:28.121Z,96901.25
2023-01-07T16:19:30.784Z,96907.13
2023-01-07T16:21:37.873Z,96900.72
2023-01-07T16:23:43.532Z,96901.91
2023-01-07T16:25:49.623Z,96898.13
2023-01-07T16:27:52.484Z,96897.69
2023-01-07T16:29:57.626Z,96894.94
2023-01-07T16:32:02.173Z,96888.94
2023-01-07T16:34:19.857Z,96899.44
2023-01-07T16:36:25.517Z,96897.41
2023-01-07T16:38:28.684Z,96901.97
2023-01-07T16:40:35.958Z,96906.69
2023-01-07T16:42:41.325Z,96897.81
2023-01-07T16:44:59.991Z,96898.69
2023-01-07T16:47:10.501Z,96907.44
2023-01-07T16:49:29.504Z,96904.56
2023-01-07T16:51:38.423Z,96905.72
2023-01-07T16:53:41.245Z,96909.59
2023-01-07T16:55:47.539Z,96911.06
2023-01-07T16:57:50.268Z,96915.88
2023-01-07T16:59:55.398Z,96914.31
2023-01-07T17:02:00.196Z,96906.84
2023-01-07T17:04:09.319Z,96912.88
2023-01-07T17:06:17.118Z,96902.44
2023-01-07T17:08:21.026Z,96902.09
2023-01-07T17:10:31.011Z,96897.00
2023-01-07T17:12:37.569Z,96898.38
2023-01-07T17:14:50.784Z,96893.78
2023-01-07T17:17:00.210Z,96898.66
2023-01-07T17:19:24.397Z,96905.72
2023-01-07T17:21:49.379Z,96904.25
2023-01-07T17:23:51.951Z,96896.66
2023-01-07T17:25:57.798Z,96894.94
2023-01-07T17:28:06.586Z,96896.03
2023-01-07T17:30:16.551Z,96882.78
2023-01-07T17:32:19.249Z,96885.56
2023-01-07T17:34:25.135Z,96883.13
2023-01-07T17:36:27.873Z,96873.56
2023-01-07T17:38:32.028Z,96881.03
2023-01-07T17:40:36.062Z,96875.22
2023-01-07T17:42:56.654Z,96869.22
2023-01-07T17:44:59.239Z,96861.09
2023-01-07T17:47:02.603Z,96858.69
2023-01-07T17:49:05.242Z,96863.22
2023-01-07T17:51:08.232Z,96859.72
2023-01-07T17:53:20.527Z,96860.94
2023-01-07T17:55:30.255Z,96850.63
2023-01-07T18:00:54.326Z,96859.78
2023-01-07T18:03:23.477Z,96865.56
2023-01-07T18:05:27.309Z,96857.66
2023-01-07T18:07:29.875Z,96858.97
2023-01-07T18:09:32.427Z,96860.56
2023-01-07T18:11:54.462Z,96858.56
2023-01-07T18:13:56.897Z,96856.06
2023-01-07T18:15:59.837Z,96857.81
2023-01-07T18:18:02.430Z,96857.56
2023-01-07T18:20:05.637Z,96849.50
2023-01-07T18:22:08.235Z,96849.50
2023-01-07T18:24:15.472Z,96851.09
2023-01-07T18:26:18.751Z,96853.50
2023-01-07T18:28:22.652Z,96860.50
2023-01-07T18:30:25.527Z,96855.75
2023-01-07T18:32:28.052Z,96863.63
2023-01-07T18:34:30.677Z,96863.75
2023-01-07T18:36:33.235Z,96859.59
2023-01-07T18:38:35.773Z,96859.69
2023-01-07T18:40:38.618Z,96852.63
2023-01-07T18:42:41.156Z,96854.47
2023-01-07T18:44:45.039Z,96860.66
2023-01-07T18:46:47.594Z,96858.22
2023-01-07T18:48:50.133Z,96858.22
2023-01-07T18:50:52.965Z,96853.22
2023-01-07T18:52:55.491Z,96852.41
2023-01-07T18:54:58.172Z,96860.88
2023-01-07T18:57:00.751Z,96857.44
2023-01-07T18:59:03.324Z,96856.69
2023-01-07T19:01:08.576Z,96856.75
2023-01-07T19:03:11.394Z,96861.00
2023-01-07T19:05:14.015Z,96866.94
2023-01-07T19:07:16.788Z,96870.00
2023-01-07T19:09:19.823Z,96869.63
2023-01-07T19:11:22.329Z,96868.16
2023-01-07T19:13:24.931Z,96862.41
2023-01-07T19:15:27.523Z,96864.19
2023-01-07T19:17:31.383Z,96863.44
2023-01-07T19:19:46.927Z,96858.41
2023-01-07T19:21:50.705Z,96854.97
2023-01-07T19:23:53.472Z,96853.41
2023-01-07T19:25:59.571Z,96843.16
2023-01-07T19:28:02.093Z,96848.50
2023-01-07T19:30:05.537Z,96837.25
2023-01-07T19:32:08.070Z,96847.66
2023-01-07T19:34:12.147Z,96834.84
2023-01-07T19:36:17.554Z,96839.25
2023-01-07T19:38:20.327Z,96834.03
2023-01-07T19:40:23.398Z,96833.19
2023-01-07T19:42:25.960Z,96835.78
2023-01-07T19:44:28.539Z,96829.09
2023-01-07T19:46:34.260Z,96835.78
2023-01-07T19:48:36.823Z,96830.94
2023-01-07T19:50:40.750Z,96833.88
2023-01-07T19:52:43.816Z,96832.94
2023-01-07T19:54:46.430Z,96830.16
2023-01-07T19:56:49.009Z,96844.25
2023-01-07T19:58:53.602Z,96849.25
2023-01-07T20:00:56.299Z,96843.25
2023-01-07T20:02:58.964Z,96851.94
2023-01-07T20:05:01.567Z,96851.91
2023-01-07T20:07:05.447Z,96855.94
2023-01-07T20:09:10.877Z,96847.47
2023-01-07T20:11:14.186Z,96849.13
2023-01-07T20:13:16.737Z,96842.34
2023-01-07T20:15:19.291Z,96845.44
2023-01-07T20:17:21.854Z,96842.03
2023-01-07T20:19:24.485Z,96839.72
2023-01-07T20:21:27.193Z,96840.78
2023-01-07T20:23:31.148Z,96832.38
2023-01-07T20:25:33.712Z,96830.28
2023-01-07T20:27:38.003Z,96828.06
2023-01-07T20:29:40.528Z,96824.66
2023-01-07T20:31:44.269Z,96825.06
2023-01-07T20:33:47.321Z,96819.13
2023-01-07T20:35:50.034Z,96805.34
2023-01-07T20:37:52.575Z,96812.25
2023-01-07T20:39:56.443Z,96812.25
2023-01-07T20:41:59.020Z,96808.88
2023-01-07T20:44:03.293Z,96802.75
2023-01-07T20:46:07.678Z,96794.25
2023-01-07T20:48:12.461Z,96802.31
2023-01-07T20:50:15.261Z,96804.91
2023-01-07T20:52:17.870Z,96801.50
2023-01-07T20:54:20.503Z,96806.69
2023-01-07T20:56:26.081Z,96804.84
2023-01-07T20:58:31.053Z,96799.59
2023-01-07T21:00:33.813Z,96794.31
2023-01-07T21:02:36.523Z,96795.94
2023-01-07T21:04:39.142Z,96788.16
2023-01-07T21:06:42.042Z,96786.72
2023-01-07T21:08:45.648Z,96789.69
2023-01-07T21:10:48.213Z,96792.50
2023-01-07T21:12:52.400Z,96791.84
2023-01-07T21:14:54.918Z,96786.78
2023-01-07T21:16:57.504Z,96784.19
2023-01-07T21:19:00.028Z,96787.75
2023-01-07T21:21:08.270Z,96786.09
2023-01-07T21:23:11.083Z,96783.44
2023-01-07T21:25:15.359Z,96785.19
2023-01-07T21:27:18.052Z,96783.34
2023-01-07T21:29:22.029Z,96788.69
2023-01-07T21:31:24.964Z,96787.00
2023-01-07T21:33:30.637Z,96783.63
2023-01-07T21:35:33.224Z,96786.22
2023-01-07T21:37:37.531Z,96793.19
2023-01-07T21:39:40.856Z,96792.38
2023-01-07T21:41:43.396Z,96792.50
2023-01-07T21:43:46.235Z,96784.06
2023-01-07T21:45:50.221Z,96792.72
2023-01-07T21:47:52.786Z,96785.69
2023-01-07T21:49:56.065Z,96793.47
2023-01-07T21:51:58.860Z,96789.31
2023-01-07T21:54:01.400Z,96795.63
2023-01-07T21:56:06.503Z,96785.84
2023-01-07T21:58:09.049Z,96785.97
2023-01-07T22:00:13.125Z,96792.03
2023-01-07T22:02:17.744Z,96790.47
2023-01-07T22:04:20.981Z,96783.81
2023-01-07T22:06:25.844Z,96788.19
2023-01-07T22:08:28.684Z,96786.72
2023-01-07T22:10:31.253Z,96791.00
2023-01-07T22:12:33.773Z,96790.25
2023-01-07T22:14:36.327Z,96789.31
2023-01-07T22:16:38.947Z,96785.38
2023-01-07T22:18:42.871Z,96784.03
2023-01-07T22:20:45.411Z,96783.75
2023-01-07T22:22:48.122Z,96776.78
2023-01-07T22:24:50.709Z,96774.34
2023-01-07T22:26:55.072Z,96770.72
2023-01-07T22:29:01.831Z,96772.78
2023-01-07T22:31:13.792Z,96775.63
2023-01-07T22:33:16.355Z,96773.16
2023-01-07T22:35:20.287Z,96770.66
2023-01-07T22:37:26.362Z,96771.72
2023-01-07T22:39:33.901Z,96770.09
2023-01-07T22:41:36.569Z,96765.84
2023-01-07T22:43:39.916Z,96758.06
2023-01-07T22:45:46.855Z,96764.09
2023-01-07T22:47:51.954Z,96757.25
2023-01-07T22:49:55.419Z,96751.34
2023-01-07T22:51:59.742Z,96747.91
2023-01-07T22:54:03.649Z,96750.56
2023-01-07T22:56:06.885Z,96747.91
2023-01-07T22:58:09.547Z,96747.91
2023-01-07T23:00:18.149Z,96756.28
2023-01-07T23:02:20.724Z,96745.78
2023-01-07T23:04:23.407Z,96749.06
2023-01-07T23:06:26.859Z,96741.13
2023-01-07T23:08:30.793Z,96741.09
2023-01-07T23:10:33.366Z,96750.44
2023-01-07T23:12:36.007Z,96752.91
2023-01-07T23:14:38.643Z,96754.59
2023-01-07T23:16:41.247Z,96759.72
2023-01-07T23:18:43.782Z,96752.53
2023-01-07T23:20:46.361Z,96753.44
2023-01-07T23:22:49.031Z,96746.56
2023-01-07T23:24:52.901Z,96738.78
2023-01-07T23:26:56.939Z,96727.66
2023-01-07T23:28:59.504Z,96726.97
2023-01-07T23:31:02.570Z,96727.63
2023-01-07T23:33:05.118Z,96720.31
2023-01-07T23:35:08.523Z,96718.22
2023-01-07T23:37:11.258Z,96717.19
2023-01-07T23:39:13.957Z,96716.38
2023-01-07T23:41:17.917Z,96713.06
2023-01-07T23:43:20.422Z,96714.59
2023-01-07T23:45:23.010Z,96708.81
2023-01-07T23:47:25.624Z,96704.63
2023-01-07T23:49:28.140Z,96703.75
2023-01-07T23:51:30.689Z,96706.56
2023-01-07T23:53:33.609Z,96703.16
2023-01-07T23:55:39.056Z,96705.84
2023-01-07T23:57:43.120Z,96705.91
2023-01-07T23:59:45.769Z,96705.94
